Time;durP1;ratioP1;P1;durP2;ratioP2;P2;SDS_P1;SDS_P2;PMS_P1;PMS_P2;Temp;Humidity;BMP_temperature;BMP_pressure;BME280_temperature;BME280_humidity;BME280_pressure;Samples;Min_cycle;Max_cycle;Signal;HPM_P1;HPM_P2
2022/07/24 00:00:29;;;;;;;7.78;3.30;;;;;;;;;;10444714;28;20036;-52
2022/07/24 00:05:30;;;;;;;7.97;3.42;;;;;;;;;;10448258;28;20078;-55
2022/07/24 00:10:31;;;;;;;6.95;3.40;;;;;;;;;;10448850;28;20104;-52
2022/07/24 00:15:31;;;;;;;4.25;2.88;;;;;;;;;;10450642;28;20017;-52
2022/07/24 00:20:32;;;;;;;3.60;2.80;;;;;;;;;;10448061;28;20455;-54
2022/07/24 00:25:33;;;;;;;12.35;3.22;;;;;;;;;;10450068;28;20261;-50
2022/07/24 00:30:33;;;;;;;4.93;2.70;;;;;;;;;;10444730;28;20377;-53
2022/07/24 00:35:35;;;;;;;6.07;3.20;;;;;;;;;;10443605;28;20037;-53
2022/07/24 00:40:36;;;;;;;4.35;2.80;;;;;;;;;;10448369;28;20040;-53
2022/07/24 00:45:36;;;;;;;3.50;2.85;;;;;;;;;;10449215;28;20461;-55
2022/07/24 00:50:39;;;;;;;5.80;2.60;;;;;;;;;;10425819;28;20120;-57
2022/07/24 00:55:40;;;;;;;4.88;2.90;;;;;;;;;;10445665;28;20182;-55
2022/07/24 01:00:40;;;;;;;4.05;2.97;;;;;;;;;;10439779;28;20162;-56
2022/07/24 01:05:41;;;;;;;3.10;2.75;;;;;;;;;;10438387;28;20568;-57
2022/07/24 01:10:42;;;;;;;5.68;3.05;;;;;;;;;;10443189;28;20021;-52
2022/07/24 01:15:42;;;;;;;4.63;2.47;;;;;;;;;;10447883;28;20328;-52
2022/07/24 01:20:47;;;;;;;4.05;2.60;;;;;;;;;;10446033;28;20029;-51
2022/07/24 01:25:48;;;;;;;5.20;2.55;;;;;;;;;;10448342;28;20051;-57
2022/07/24 01:30:49;;;;;;;5.28;2.47;;;;;;;;;;10434006;28;20063;-53
2022/07/24 01:35:51;;;;;;;5.57;2.53;;;;;;;;;;10448178;28;20032;-57
2022/07/24 01:40:52;;;;;;;3.42;2.47;;;;;;;;;;10427796;28;20036;-51
2022/07/24 01:45:52;;;;;;;3.80;2.30;;;;;;;;;;10441687;28;20361;-53
2022/07/24 01:50:53;;;;;;;3.17;2.35;;;;;;;;;;10431566;28;20029;-49
2022/07/24 01:55:54;;;;;;;5.72;2.42;;;;;;;;;;10445748;28;20033;-51
2022/07/24 02:00:55;;;;;;;7.38;2.45;;;;;;;;;;10453640;28;20025;-52
2022/07/24 02:05:55;;;;;;;4.45;2.40;;;;;;;;;;10449605;28;20036;-50
2022/07/24 02:10:56;;;;;;;5.57;2.38;;;;;;;;;;10451487;28;20391;-50
2022/07/24 02:15:56;;;;;;;5.25;2.13;;;;;;;;;;10446325;28;20037;-51
2022/07/24 02:20:57;;;;;;;3.65;2.30;;;;;;;;;;10453288;28;20028;-51
2022/07/24 02:25:58;;;;;;;4.00;2.10;;;;;;;;;;10453733;28;20514;-54
2022/07/24 02:30:59;;;;;;;3.08;2.35;;;;;;;;;;10454856;28;20025;-57
2022/07/24 02:35:59;;;;;;;2.97;2.22;;;;;;;;;;10452318;28;20241;-57
2022/07/24 02:41:00;;;;;;;3.08;2.10;;;;;;;;;;10453550;28;20491;-54
2022/07/24 02:46:01;;;;;;;5.57;2.05;;;;;;;;;;10449909;28;20032;-58
2022/07/24 02:51:01;;;;;;;7.25;2.80;;;;;;;;;;10446910;28;20031;-52
2022/07/24 02:56:02;;;;;;;8.25;2.40;;;;;;;;;;10442979;28;20033;-52
2022/07/24 03:01:03;;;;;;;8.50;2.63;;;;;;;;;;10446430;28;20033;-52
2022/07/24 03:06:04;;;;;;;4.07;2.17;;;;;;;;;;10445802;28;20067;-55
2022/07/24 03:11:05;;;;;;;2.45;2.10;;;;;;;;;;10452668;28;20027;-55
2022/07/24 03:16:06;;;;;;;4.20;2.63;;;;;;;;;;10450980;28;20029;-53
2022/07/24 03:21:06;;;;;;;4.72;2.15;;;;;;;;;;10450901;28;20510;-49
2022/07/24 03:26:07;;;;;;;11.27;2.72;;;;;;;;;;10451628;28;20045;-56
2022/07/24 03:31:08;;;;;;;4.57;2.25;;;;;;;;;;10452602;28;20055;-53
2022/07/24 03:36:09;;;;;;;5.45;2.90;;;;;;;;;;10451592;28;20186;-54
2022/07/24 03:41:10;;;;;;;3.40;2.10;;;;;;;;;;10451785;28;20037;-49
2022/07/24 03:46:10;;;;;;;2.53;2.05;;;;;;;;;;10444768;28;20029;-51
2022/07/24 03:51:11;;;;;;;6.53;2.03;;;;;;;;;;10451273;28;20249;-51
2022/07/24 03:56:11;;;;;;;4.40;1.80;;;;;;;;;;10449119;28;20037;-50
2022/07/24 04:01:12;;;;;;;4.72;2.10;;;;;;;;;;10450966;28;20426;-53
2022/07/24 04:06:13;;;;;;;3.08;1.83;;;;;;;;;;10443517;28;20044;-55
2022/07/24 04:11:13;;;;;;;3.40;2.13;;;;;;;;;;10450583;28;20033;-53
2022/07/24 04:16:14;;;;;;;5.10;2.30;;;;;;;;;;10448879;28;20464;-58
2022/07/24 04:21:15;;;;;;;3.40;2.00;;;;;;;;;;10449043;28;20025;-52
2022/07/24 04:26:16;;;;;;;3.08;1.90;;;;;;;;;;10445591;28;20351;-52
2022/07/24 04:31:16;;;;;;;4.03;1.92;;;;;;;;;;10450071;28;20029;-55
2022/07/24 04:36:17;;;;;;;5.13;1.92;;;;;;;;;;10448314;28;20483;-54
2022/07/24 04:41:18;;;;;;;5.38;2.13;;;;;;;;;;10449303;28;20468;-55
2022/07/24 04:46:18;;;;;;;4.97;2.40;;;;;;;;;;10432509;28;20028;-51
2022/07/24 04:51:19;;;;;;;5.97;2.10;;;;;;;;;;10446419;28;20448;-58
2022/07/24 04:56:21;;;;;;;3.50;2.10;;;;;;;;;;10441792;28;20148;-54
2022/07/24 05:01:21;;;;;;;2.92;1.70;;;;;;;;;;10446781;28;20036;-50
2022/07/24 05:06:23;;;;;;;3.95;2.25;;;;;;;;;;10447519;28;20468;-56
2022/07/24 05:11:24;;;;;;;4.55;2.00;;;;;;;;;;10448790;28;20025;-51
2022/07/24 05:16:25;;;;;;;2.72;2.03;;;;;;;;;;10445992;28;20033;-54
2022/07/24 05:21:25;;;;;;;4.72;1.80;;;;;;;;;;10448166;28;20234;-52
2022/07/24 05:26:26;;;;;;;2.15;1.73;;;;;;;;;;10444108;28;20048;-58
2022/07/24 05:31:27;;;;;;;2.22;1.90;;;;;;;;;;10447748;28;20032;-55
2022/07/24 05:36:29;;;;;;;4.10;1.88;;;;;;;;;;10447363;28;20039;-53
2022/07/24 05:41:29;;;;;;;3.05;1.80;;;;;;;;;;10447812;28;20476;-52
2022/07/24 05:46:30;;;;;;;3.85;1.70;;;;;;;;;;10442779;28;20044;-52
2022/07/24 05:51:31;;;;;;;3.45;1.98;;;;;;;;;;10445769;28;20048;-57
2022/07/24 05:56:31;;;;;;;3.42;2.40;;;;;;;;;;10440239;28;20116;-56
2022/07/24 06:01:32;;;;;;;5.75;1.70;;;;;;;;;;10444931;28;20365;-57
2022/07/24 06:06:33;;;;;;;5.13;1.88;;;;;;;;;;10442046;28;20021;-57
2022/07/24 06:11:33;;;;;;;3.60;2.17;;;;;;;;;;10441708;28;20033;-57
2022/07/24 06:16:34;;;;;;;4.22;2.10;;;;;;;;;;10442753;28;20041;-56
2022/07/24 06:21:34;;;;;;;5.90;2.00;;;;;;;;;;10439431;28;20091;-59
2022/07/24 06:26:35;;;;;;;2.53;2.08;;;;;;;;;;10441139;28;20041;-58
2022/07/24 06:31:36;;;;;;;3.17;1.90;;;;;;;;;;10446790;28;20408;-57
2022/07/24 06:36:36;;;;;;;4.22;2.03;;;;;;;;;;10444601;28;20048;-59
2022/07/24 06:41:37;;;;;;;2.13;1.92;;;;;;;;;;10448872;28;20131;-57
2022/07/24 06:46:37;;;;;;;3.90;2.03;;;;;;;;;;10444522;28;20048;-57
2022/07/24 06:51:38;;;;;;;2.88;2.05;;;;;;;;;;10452180;28;20032;-59
2022/07/24 06:56:39;;;;;;;4.85;2.15;;;;;;;;;;10445997;28;20029;-58
2022/07/24 07:01:39;;;;;;;5.22;2.13;;;;;;;;;;10447916;28;20033;-58
2022/07/24 07:06:40;;;;;;;3.08;2.03;;;;;;;;;;10451188;28;20013;-57
2022/07/24 07:11:40;;;;;;;7.82;2.22;;;;;;;;;;10451621;28;20025;-58
2022/07/24 07:16:41;;;;;;;3.25;1.92;;;;;;;;;;10440336;28;20036;-58
2022/07/24 07:21:41;;;;;;;3.42;2.25;;;;;;;;;;10451045;28;20029;-56
2022/07/24 07:26:42;;;;;;;2.83;2.10;;;;;;;;;;10451872;28;20041;-57
2022/07/24 07:31:43;;;;;;;3.40;2.13;;;;;;;;;;10438912;28;20033;-54
2022/07/24 07:36:44;;;;;;;5.65;2.40;;;;;;;;;;10443432;28;20025;-56
2022/07/24 07:41:44;;;;;;;2.83;2.20;;;;;;;;;;10450351;28;20036;-57
2022/07/24 07:46:45;;;;;;;2.00;1.80;;;;;;;;;;10446457;28;20025;-58
2022/07/24 07:51:47;;;;;;;12.90;3.42;;;;;;;;;;10449169;28;20354;-55
2022/07/24 07:56:47;;;;;;;9.05;4.05;;;;;;;;;;10428673;28;20465;-57
2022/07/24 08:01:49;;;;;;;8.82;4.43;;;;;;;;;;10446852;28;20029;-56
2022/07/24 08:06:50;;;;;;;8.25;4.30;;;;;;;;;;10445556;28;20039;-58
2022/07/24 08:11:50;;;;;;;7.95;3.95;;;;;;;;;;10450577;28;20032;-57
2022/07/24 08:16:51;;;;;;;9.10;4.15;;;;;;;;;;10445191;28;20032;-55
2022/07/24 08:21:52;;;;;;;8.02;4.22;;;;;;;;;;10438337;28;20063;-55
2022/07/24 08:26:52;;;;;;;6.75;4.30;;;;;;;;;;10449352;28;20045;-57
2022/07/24 08:31:53;;;;;;;5.22;3.85;;;;;;;;;;10446997;28;20036;-57
2022/07/24 08:36:54;;;;;;;6.03;4.28;;;;;;;;;;10449677;28;20044;-58
2022/07/24 08:41:54;;;;;;;6.72;3.47;;;;;;;;;;10450013;28;20036;-56
2022/07/24 08:46:58;;;;;;;8.00;4.05;;;;;;;;;;10444127;28;20033;-52
2022/07/24 08:52:02;;;;;;;4.53;3.70;;;;;;;;;;10443649;28;20500;-57
2022/07/24 08:57:03;;;;;;;6.43;3.67;;;;;;;;;;10421240;28;20021;-56
2022/07/24 09:02:04;;;;;;;4.95;3.38;;;;;;;;;;10426644;28;20043;-55
2022/07/24 09:07:10;;;;;;;4.97;3.45;;;;;;;;;;10442632;28;20333;-53
2022/07/24 09:12:15;;;;;;;7.90;3.38;;;;;;;;;;10443938;28;20026;-55
2022/07/24 09:17:21;;;;;;;5.25;3.30;;;;;;;;;;10443608;28;20024;-55
2022/07/24 09:22:39;;;;;;;3.63;3.22;;;;;;;;;;10433783;28;20029;-55
2022/07/24 09:27:57;;;;;;;3.47;3.03;;;;;;;;;;10440986;28;20037;-55
2022/07/24 09:33:01;;;;;;;4.97;3.15;;;;;;;;;;10445446;28;20272;-57
2022/07/24 09:38:04;;;;;;;5.88;3.45;;;;;;;;;;10447898;28;20052;-57
2022/07/24 09:43:27;;;;;;;6.72;3.20;;;;;;;;;;10442187;28;20039;-54
2022/07/24 09:48:30;;;;;;;3.40;3.10;;;;;;;;;;10443223;28;20088;-57
2022/07/24 09:53:33;;;;;;;9.98;3.83;;;;;;;;;;10444890;28;20025;-54
2022/07/24 09:58:41;;;;;;;5.10;3.30;;;;;;;;;;10440174;28;20152;-55
2022/07/24 10:03:44;;;;;;;4.55;3.15;;;;;;;;;;10447904;28;20044;-57
2022/07/24 10:08:47;;;;;;;5.00;3.20;;;;;;;;;;10445014;28;20029;-56
2022/07/24 10:13:49;;;;;;;3.78;3.33;;;;;;;;;;10446028;28;20087;-54
2022/07/24 10:18:59;;;;;;;3.42;3.10;;;;;;;;;;10453989;28;20033;-54
2022/07/24 10:24:11;;;;;;;3.65;2.75;;;;;;;;;;10436828;28;20045;-57
2022/07/24 10:29:22;;;;;;;5.15;3.10;;;;;;;;;;10440605;28;20494;-57
2022/07/24 10:34:47;;;;;;;3.78;3.20;;;;;;;;;;10437622;28;20062;-55
2022/07/24 10:40:10;;;;;;;3.17;2.88;;;;;;;;;;10452606;28;20033;-52
2022/07/24 10:45:18;;;;;;;3.00;2.47;;;;;;;;;;10452794;28;20098;-53
2022/07/24 10:50:19;;;;;;;3.20;2.50;;;;;;;;;;10449893;28;20035;-52
2022/07/24 10:55:28;;;;;;;3.00;2.70;;;;;;;;;;10448826;28;20036;-56
2022/07/24 11:00:54;;;;;;;4.50;2.60;;;;;;;;;;10452751;28;20104;-54
2022/07/24 11:06:11;;;;;;;3.35;2.38;;;;;;;;;;10451968;28;20021;-56
2022/07/24 11:11:21;;;;;;;3.35;2.40;;;;;;;;;;10449471;28;20032;-52
2022/07/24 11:16:25;;;;;;;2.78;2.50;;;;;;;;;;10448954;28;20068;-55
2022/07/24 11:21:37;;;;;;;4.25;2.60;;;;;;;;;;10451515;28;20020;-56
2022/07/24 11:26:40;;;;;;;3.90;2.97;;;;;;;;;;10442675;28;20049;-57
2022/07/24 11:31:48;;;;;;;4.30;2.75;;;;;;;;;;10449969;28;20025;-56
2022/07/24 11:36:52;;;;;;;2.70;2.50;;;;;;;;;;10447940;28;20079;-54
2022/07/24 11:41:58;;;;;;;3.45;2.55;;;;;;;;;;10448172;28;20040;-54
2022/07/24 11:47:07;;;;;;;7.00;2.50;;;;;;;;;;10446130;28;20539;-55
2022/07/24 11:52:13;;;;;;;3.00;2.70;;;;;;;;;;10451352;28;20392;-57
2022/07/24 11:57:29;;;;;;;2.75;2.40;;;;;;;;;;10440922;28;20086;-56
2022/07/24 12:02:30;;;;;;;3.63;2.63;;;;;;;;;;10445282;28;20439;-55
2022/07/24 12:07:31;;;;;;;2.65;2.40;;;;;;;;;;10440534;28;20013;-55
2022/07/24 12:12:37;;;;;;;3.15;2.60;;;;;;;;;;10441922;28;20025;-54
2022/07/24 12:18:06;;;;;;;2.67;2.47;;;;;;;;;;10431555;28;20048;-56
2022/07/24 12:23:13;;;;;;;3.08;2.65;;;;;;;;;;10447751;28;20025;-57
2022/07/24 12:28:18;;;;;;;4.22;2.35;;;;;;;;;;10439969;28;20060;-54
2022/07/24 12:33:26;;;;;;;3.08;2.28;;;;;;;;;;10449904;28;20025;-57
2022/07/24 12:38:37;;;;;;;3.08;2.70;;;;;;;;;;10447372;28;20031;-56
2022/07/24 12:43:47;;;;;;;2.90;2.67;;;;;;;;;;10443114;28;20032;-55
2022/07/24 12:49:01;;;;;;;2.78;2.58;;;;;;;;;;10439383;28;20025;-57
2022/07/24 12:54:01;;;;;;;4.22;2.65;;;;;;;;;;10444833;28;20101;-57
2022/07/24 12:59:04;;;;;;;4.03;2.90;;;;;;;;;;10443209;28;20031;-56
2022/07/24 13:04:09;;;;;;;2.80;2.53;;;;;;;;;;10442335;28;20507;-58
2022/07/24 13:09:12;;;;;;;4.55;2.40;;;;;;;;;;10446174;28;20017;-56
2022/07/24 13:14:15;;;;;;;5.40;2.90;;;;;;;;;;10436803;28;20023;-58
2022/07/24 13:19:17;;;;;;;16.15;3.05;;;;;;;;;;10441864;28;20035;-58
2022/07/24 13:24:17;;;;;;;3.53;2.95;;;;;;;;;;10448387;28;20064;-58
2022/07/24 13:29:18;;;;;;;4.50;2.50;;;;;;;;;;10448166;28;20028;-59
2022/07/24 13:34:19;;;;;;;3.60;2.95;;;;;;;;;;10447721;28;20178;-55
2022/07/24 13:39:22;;;;;;;3.40;2.92;;;;;;;;;;10447248;28;20349;-57
2022/07/24 13:44:22;;;;;;;4.18;3.45;;;;;;;;;;10441994;28;20032;-54
2022/07/24 13:49:23;;;;;;;3.28;2.97;;;;;;;;;;10444046;28;20067;-58
2022/07/24 13:54:24;;;;;;;5.07;3.13;;;;;;;;;;10431011;28;20469;-52
2022/07/24 13:59:25;;;;;;;4.60;3.25;;;;;;;;;;10446072;28;20276;-54
2022/07/24 14:04:25;;;;;;;4.25;2.90;;;;;;;;;;10434826;28;20021;-58
2022/07/24 14:09:26;;;;;;;3.42;3.03;;;;;;;;;;10453191;28;20025;-58
2022/07/24 14:14:26;;;;;;;6.85;3.00;;;;;;;;;;10454776;28;20021;-57
2022/07/24 14:19:27;;;;;;;3.60;2.70;;;;;;;;;;10444969;28;20025;-56
2022/07/24 14:24:28;;;;;;;3.28;2.85;;;;;;;;;;10445142;28;20033;-58
2022/07/24 14:29:28;;;;;;;4.68;3.10;;;;;;;;;;10452518;28;20112;-57
2022/07/24 14:34:29;;;;;;;7.03;3.13;;;;;;;;;;10448492;28;20022;-58
2022/07/24 14:39:30;;;;;;;5.45;3.05;;;;;;;;;;10447305;28;20029;-58
2022/07/24 14:44:31;;;;;;;3.72;2.88;;;;;;;;;;10448054;28;20017;-58
2022/07/24 14:49:32;;;;;;;3.22;2.95;;;;;;;;;;10454497;28;20025;-59
2022/07/24 14:54:32;;;;;;;6.05;3.22;;;;;;;;;;10454236;28;20549;-59
2022/07/24 14:59:33;;;;;;;5.05;2.92;;;;;;;;;;10444341;28;20036;-58
2022/07/24 15:04:34;;;;;;;3.58;3.20;;;;;;;;;;10448677;28;20144;-58
2022/07/24 15:09:35;;;;;;;3.78;3.45;;;;;;;;;;10431181;28;20399;-58
2022/07/24 15:14:36;;;;;;;4.90;3.33;;;;;;;;;;10446628;28;20121;-60
2022/07/24 15:19:37;;;;;;;4.45;2.95;;;;;;;;;;10448042;28;20064;-57
2022/07/24 15:24:37;;;;;;;4.45;3.35;;;;;;;;;;10440391;28;20044;-58
2022/07/24 15:29:38;;;;;;;6.97;3.33;;;;;;;;;;10451970;28;20029;-57
2022/07/24 15:34:38;;;;;;;4.45;3.33;;;;;;;;;;10449330;28;20468;-57
2022/07/24 15:39:39;;;;;;;4.28;3.00;;;;;;;;;;10451231;28;20196;-57
2022/07/24 15:44:39;;;;;;;4.72;3.10;;;;;;;;;;10451522;28;20048;-58
2022/07/24 15:49:40;;;;;;;5.03;3.17;;;;;;;;;;10446142;28;20013;-57
2022/07/24 15:54:41;;;;;;;3.97;3.20;;;;;;;;;;10449760;28;20499;-57
2022/07/24 15:59:41;;;;;;;5.00;3.17;;;;;;;;;;10450471;28;20435;-57
2022/07/24 16:04:42;;;;;;;4.13;2.85;;;;;;;;;;10445498;28;20403;-57
2022/07/24 16:09:43;;;;;;;4.05;3.35;;;;;;;;;;10446076;28;20021;-56
2022/07/24 16:14:44;;;;;;;3.42;3.10;;;;;;;;;;10448236;28;20086;-58
2022/07/24 16:19:45;;;;;;;3.15;2.80;;;;;;;;;;10444099;28;20041;-57
2022/07/24 16:24:46;;;;;;;4.93;2.70;;;;;;;;;;10449306;28;20056;-58
2022/07/24 16:29:46;;;;;;;7.75;2.78;;;;;;;;;;10445096;28;20033;-57
2022/07/24 16:34:48;;;;;;;4.05;2.53;;;;;;;;;;10449996;28;20041;-57
2022/07/24 16:39:49;;;;;;;4.13;2.78;;;;;;;;;;10445862;28;20073;-57
2022/07/24 16:44:50;;;;;;;3.95;2.95;;;;;;;;;;10443672;28;20017;-57
2022/07/24 16:49:51;;;;;;;3.75;2.72;;;;;;;;;;10438905;28;20049;-56
2022/07/24 16:54:51;;;;;;;3.50;2.90;;;;;;;;;;10442669;28;20028;-55
2022/07/24 16:59:52;;;;;;;2.80;2.50;;;;;;;;;;10432546;28;20248;-53
2022/07/24 17:04:52;;;;;;;2.95;2.67;;;;;;;;;;10447120;28;20017;-54
2022/07/24 17:09:53;;;;;;;6.22;2.83;;;;;;;;;;10432551;28;20071;-54
2022/07/24 17:14:54;;;;;;;3.65;2.90;;;;;;;;;;10438708;28;20025;-58
2022/07/24 17:19:54;;;;;;;3.10;2.80;;;;;;;;;;10446016;28;20020;-57
2022/07/24 17:24:55;;;;;;;11.15;3.05;;;;;;;;;;10445112;28;20037;-57
2022/07/24 17:29:55;;;;;;;10.98;3.30;;;;;;;;;;10440140;28;20044;-55
2022/07/24 17:34:56;;;;;;;12.13;2.88;;;;;;;;;;10442933;28;20025;-57
2022/07/24 17:39:57;;;;;;;9.20;3.13;;;;;;;;;;10447666;28;20511;-56
2022/07/24 17:44:57;;;;;;;9.38;3.22;;;;;;;;;;10442409;28;20025;-57
2022/07/24 17:49:58;;;;;;;7.50;3.30;;;;;;;;;;10440459;28;20056;-55
2022/07/24 17:54:58;;;;;;;5.43;2.92;;;;;;;;;;10444358;28;20021;-57
2022/07/24 17:59:59;;;;;;;6.07;3.20;;;;;;;;;;10442848;28;20039;-57
2022/07/24 18:05:00;;;;;;;4.45;2.55;;;;;;;;;;10447096;28;20407;-57
2022/07/24 18:10:00;;;;;;;5.78;2.92;;;;;;;;;;10442696;28;20024;-57
2022/07/24 18:15:01;;;;;;;4.05;2.78;;;;;;;;;;10440403;28;20481;-57
2022/07/24 18:20:03;;;;;;;4.43;2.72;;;;;;;;;;10447219;28;20033;-57
2022/07/24 18:25:04;;;;;;;3.05;2.75;;;;;;;;;;10441561;28;20044;-57
2022/07/24 18:30:05;;;;;;;3.22;2.45;;;;;;;;;;10441323;28;20039;-56
2022/07/24 18:35:06;;;;;;;3.83;2.38;;;;;;;;;;10437573;28;20056;-57
2022/07/24 18:40:09;;;;;;;4.75;2.50;;;;;;;;;;10452165;28;20029;-57
2022/07/24 18:45:10;;;;;;;3.88;2.60;;;;;;;;;;10449192;28;20025;-57
2022/07/24 18:50:10;;;;;;;3.05;2.45;;;;;;;;;;10447891;28;20028;-58
2022/07/24 18:55:11;;;;;;;3.75;2.85;;;;;;;;;;10452444;28;20024;-58
2022/07/24 19:00:12;;;;;;;5.22;2.70;;;;;;;;;;10450241;28;20032;-57
2022/07/24 19:05:13;;;;;;;4.60;2.50;;;;;;;;;;10444880;28;20032;-57
2022/07/24 19:10:13;;;;;;;2.78;2.33;;;;;;;;;;10440813;28;20036;-56
2022/07/24 19:15:14;;;;;;;3.75;2.22;;;;;;;;;;10444265;28;20418;-55
2022/07/24 19:20:15;;;;;;;3.78;2.53;;;;;;;;;;10437805;28;20113;-57
2022/07/24 19:25:15;;;;;;;3.33;2.20;;;;;;;;;;10449372;28;20041;-57
2022/07/24 19:30:16;;;;;;;4.80;2.33;;;;;;;;;;10448026;28;20025;-57
2022/07/24 19:35:17;;;;;;;3.38;2.50;;;;;;;;;;10452641;28;20028;-57
2022/07/24 19:40:18;;;;;;;2.67;2.35;;;;;;;;;;10449708;28;20086;-58
2022/07/24 19:45:18;;;;;;;3.40;2.45;;;;;;;;;;10444498;28;20055;-59
2022/07/24 19:50:19;;;;;;;4.13;2.60;;;;;;;;;;10440855;28;20079;-55
2022/07/24 19:55:20;;;;;;;5.63;2.45;;;;;;;;;;10419532;28;20186;-57
2022/07/24 20:00:21;;;;;;;9.82;3.17;;;;;;;;;;10442727;28;20055;-58
2022/07/24 20:05:21;;;;;;;4.38;2.60;;;;;;;;;;10447828;28;20017;-57
2022/07/24 20:10:22;;;;;;;6.68;2.65;;;;;;;;;;10449970;28;20483;-57
2022/07/24 20:15:23;;;;;;;5.45;2.58;;;;;;;;;;10432522;28;20025;-58
2022/07/24 20:20:23;;;;;;;5.32;2.30;;;;;;;;;;10444858;28;20208;-57
2022/07/24 20:25:24;;;;;;;5.40;2.47;;;;;;;;;;10443610;28;20044;-57
2022/07/24 20:30:25;;;;;;;4.63;2.40;;;;;;;;;;10438742;28;20039;-56
2022/07/24 20:35:26;;;;;;;2.58;2.38;;;;;;;;;;10449920;28;20033;-58
2022/07/24 20:40:37;;;;;;;6.03;2.60;;;;;;;;;;10439504;28;20554;-57
2022/07/24 20:45:38;;;;;;;3.75;2.63;;;;;;;;;;10418355;28;20032;-55
2022/07/24 20:50:39;;;;;;;4.35;2.22;;;;;;;;;;10447119;28;20029;-58
2022/07/24 20:55:39;;;;;;;3.53;2.55;;;;;;;;;;10446923;28;20153;-59
2022/07/24 21:00:40;;;;;;;5.03;2.55;;;;;;;;;;10439987;28;20029;-58
2022/07/24 21:05:40;;;;;;;6.95;2.83;;;;;;;;;;10446076;28;20043;-58
2022/07/24 21:10:41;;;;;;;4.50;2.65;;;;;;;;;;10429276;28;20049;-58
2022/07/24 21:15:41;;;;;;;11.55;3.10;;;;;;;;;;10415747;28;20481;-57
2022/07/24 21:20:42;;;;;;;14.05;3.20;;;;;;;;;;10424844;28;20029;-58
2022/07/24 21:25:43;;;;;;;11.27;2.70;;;;;;;;;;10433271;28;20052;-57
2022/07/24 21:30:44;;;;;;;10.68;3.08;;;;;;;;;;10444757;28;20037;-58
2022/07/24 21:35:44;;;;;;;8.43;3.03;;;;;;;;;;10447859;28;20018;-58
2022/07/24 21:40:45;;;;;;;5.80;2.83;;;;;;;;;;10445586;28;20040;-58
2022/07/24 21:45:46;;;;;;;5.63;2.75;;;;;;;;;;10445486;28;20415;-58
2022/07/24 21:50:46;;;;;;;8.82;3.08;;;;;;;;;;10444711;28;20086;-57
2022/07/24 21:55:47;;;;;;;7.53;2.70;;;;;;;;;;10446815;28;20035;-54
2022/07/24 22:00:48;;;;;;;8.48;3.13;;;;;;;;;;10446877;28;20040;-58
2022/07/24 22:05:49;;;;;;;6.38;3.10;;;;;;;;;;10447575;28;20021;-58
2022/07/24 22:10:50;;;;;;;8.20;3.00;;;;;;;;;;10447185;28;20029;-57
2022/07/24 22:15:51;;;;;;;6.22;3.00;;;;;;;;;;10455374;28;20025;-58
2022/07/24 22:20:52;;;;;;;5.68;2.60;;;;;;;;;;10454024;28;20056;-57
2022/07/24 22:25:53;;;;;;;5.47;2.78;;;;;;;;;;10444573;28;20569;-52
2022/07/24 22:30:54;;;;;;;3.13;2.35;;;;;;;;;;10447071;28;20061;-55
2022/07/24 22:35:55;;;;;;;3.67;2.58;;;;;;;;;;10449219;28;20037;-56
2022/07/24 22:40:55;;;;;;;2.72;2.35;;;;;;;;;;10455023;28;20029;-54
2022/07/24 22:45:56;;;;;;;5.35;2.72;;;;;;;;;;10450462;28;20039;-53
2022/07/24 22:50:57;;;;;;;6.18;2.45;;;;;;;;;;10435265;28;20388;-54
2022/07/24 22:55:59;;;;;;;30.42;2.63;;;;;;;;;;10452673;28;20064;-55
2022/07/24 23:01:00;;;;;;;7.15;2.47;;;;;;;;;;10453545;28;20460;-55
2022/07/24 23:06:00;;;;;;;5.70;2.30;;;;;;;;;;10446013;28;20033;-58
2022/07/24 23:11:01;;;;;;;5.88;2.60;;;;;;;;;;10447150;28;20048;-57
2022/07/24 23:16:02;;;;;;;4.47;2.55;;;;;;;;;;10444246;28;20472;-59
2022/07/24 23:21:02;;;;;;;4.65;2.38;;;;;;;;;;10445589;28;20028;-57
2022/07/24 23:26:03;;;;;;;2.45;2.10;;;;;;;;;;10439009;28;20220;-58
2022/07/24 23:31:04;;;;;;;2.88;2.28;;;;;;;;;;10444242;28;20036;-58
2022/07/24 23:36:05;;;;;;;5.07;2.50;;;;;;;;;;10451378;28;20052;-56
2022/07/24 23:41:06;;;;;;;6.13;2.40;;;;;;;;;;10451833;28;20464;-58
2022/07/24 23:46:06;;;;;;;4.68;2.42;;;;;;;;;;10445787;28;20025;-57
2022/07/24 23:51:07;;;;;;;2.45;2.20;;;;;;;;;;10451027;28;20021;-59
2022/07/24 23:56:07;;;;;;;3.38;2.20;;;;;;;;;;10444692;28;20029;-58
